createdAt,value
2022-12-06T00:02:44.218Z,98555.56
2022-12-06T00:08:09.413Z,98551.94
2022-12-06T00:13:33.161Z,98550.25
2022-12-06T00:19:01.377Z,98554.41
2022-12-06T00:24:29.150Z,98551.78
2022-12-06T00:30:00.402Z,98543.63
2022-12-06T00:35:28.189Z,98546.28
2022-12-06T00:40:52.193Z,98539.16
2022-12-06T00:46:20.257Z,98541.81
2022-12-06T00:51:49.238Z,98543.63
2022-12-06T00:57:14.265Z,98550.63
2022-12-06T01:02:38.367Z,98563.78
2022-12-06T01:08:06.255Z,98558.47
2022-12-06T01:13:30.253Z,98556.69
2022-12-06T01:18:56.253Z,98556.69
2022-12-06T01:24:23.234Z,98568.16
2022-12-06T01:29:54.205Z,98562.00
2022-12-06T01:35:19.234Z,98557.53
2022-12-06T01:40:52.225Z,98555.72
2022-12-06T01:46:29.225Z,98546.81
2022-12-06T01:51:56.191Z,98542.47
2022-12-06T01:57:26.221Z,98545.03
2022-12-06T02:02:51.473Z,98532.59
2022-12-06T02:08:17.297Z,98538.66
2022-12-06T02:13:44.283Z,98544.84
2022-12-06T02:19:20.218Z,98540.47
2022-12-06T02:25:17.228Z,98534.97
2022-12-06T02:30:56.312Z,98533.19
2022-12-06T02:36:25.226Z,98507.41
2022-12-06T02:41:55.248Z,98506.63
2022-12-06T02:47:25.215Z,98496.03
2022-12-06T02:52:55.214Z,98495.09
2022-12-06T02:58:20.254Z,98500.16
2022-12-06T03:04:38.326Z,98500.72
2022-12-06T03:10:14.224Z,98506.16
2022-12-06T03:15:48.302Z,98489.03
2022-12-06T03:21:17.228Z,98488.88
2022-12-06T03:26:54.540Z,98481.84
2022-12-06T03:32:23.271Z,98477.91
2022-12-06T03:37:49.244Z,98482.63
2022-12-06T03:43:17.265Z,98471.28
2022-12-06T03:48:46.259Z,98473.16
2022-12-06T03:54:14.308Z,98462.84
2022-12-06T03:59:41.261Z,98453.00
2022-12-06T04:05:06.253Z,98451.00
2022-12-06T04:10:31.244Z,98452.63
2022-12-06T04:15:59.314Z,98449.69
2022-12-06T04:21:36.249Z,98439.06
2022-12-06T04:27:21.337Z,98445.00
2022-12-06T04:33:01.296Z,98440.53
2022-12-06T04:38:38.299Z,98454.38
2022-12-06T04:44:02.297Z,98441.88
2022-12-06T04:49:33.250Z,98439.00
2022-12-06T04:54:58.293Z,98447.72
2022-12-06T05:00:25.347Z,98439.66
2022-12-06T05:05:53.269Z,98439.66
2022-12-06T05:11:18.316Z,98435.94
2022-12-06T05:16:43.409Z,98434.88
2022-12-06T05:22:11.285Z,98445.41
2022-12-06T05:27:36.335Z,98438.41
2022-12-06T05:33:01.296Z,98430.66
2022-12-06T05:38:35.305Z,98430.66
2022-12-06T05:44:00.360Z,98437.47
2022-12-06T05:49:25.313Z,98449.09
2022-12-06T05:54:53.307Z,98441.78
2022-12-06T06:00:19.465Z,98431.28
2022-12-06T06:05:44.289Z,98423.44
2022-12-06T06:11:12.376Z,98427.34
2022-12-06T06:16:39.402Z,98422.03
2022-12-06T06:22:03.309Z,98415.03
2022-12-06T06:27:31.320Z,98423.06
2022-12-06T06:47:48.033Z,98418.13
2022-12-06T06:53:19.040Z,98416.63
2022-12-06T06:58:43.993Z,98409.81
2022-12-06T07:04:11.989Z,98405.47
2022-12-06T07:09:37.030Z,98411.06
2022-12-06T07:15:01.033Z,98415.53
2022-12-06T07:20:29.131Z,98409.28
2022-12-06T07:25:53.049Z,98412.13
2022-12-06T07:31:19.158Z,98409.47
2022-12-06T07:36:47.038Z,98409.59
2022-12-06T07:42:24.070Z,98414.78
2022-12-06T07:47:49.065Z,98401.50
2022-12-06T07:53:23.045Z,98402.56
2022-12-06T07:58:48.043Z,98405.03
2022-12-06T08:04:15.134Z,98404.09
2022-12-06T08:09:43.025Z,98397.91
2022-12-06T08:15:07.036Z,98401.50
2022-12-06T08:20:32.050Z,98408.53
2022-12-06T08:25:59.062Z,98407.56
2022-12-06T08:31:26.251Z,98400.44
2022-12-06T08:36:50.045Z,98405.69
2022-12-06T08:42:23.546Z,98402.91
2022-12-06T08:47:49.074Z,98399.19
2022-12-06T08:53:20.080Z,98394.75
2022-12-06T08:58:48.040Z,98393.81
2022-12-06T09:04:14.208Z,98392.84
2022-12-06T09:09:39.049Z,98395.41
2022-12-06T09:15:06.090Z,98385.53
2022-12-06T09:20:31.092Z,98389.91
2022-12-06T09:25:57.076Z,98386.38
2022-12-06T09:31:25.122Z,98396.69
2022-12-06T09:36:50.110Z,98386.81
2022-12-06T09:42:45.110Z,98380.69
2022-12-06T09:48:33.086Z,98385.97
2022-12-06T09:54:18.076Z,98381.44
2022-12-06T09:59:56.108Z,98374.41
2022-12-06T10:05:51.937Z,98367.59
2022-12-06T10:11:28.083Z,98367.72
2022-12-06T10:17:09.459Z,98359.13
2022-12-06T10:22:44.136Z,98351.25
2022-12-06T10:28:17.136Z,98360.28
2022-12-06T10:33:52.103Z,98359.53
2022-12-06T10:39:25.148Z,98367.78
2022-12-06T10:44:55.092Z,98368.19
2022-12-06T10:50:23.125Z,98372.84
2022-12-06T10:55:58.124Z,98377.50
2022-12-06T11:01:29.195Z,98379.81
2022-12-06T11:06:59.131Z,98385.41
2022-12-06T11:12:40.101Z,98377.97
2022-12-06T11:18:12.159Z,98384.22
2022-12-06T11:23:42.138Z,98387.50
2022-12-06T11:29:14.112Z,98390.91
2022-12-06T11:34:43.154Z,98387.44
2022-12-06T11:40:17.215Z,98379.47
2022-12-06T11:45:49.123Z,98376.72
2022-12-06T11:51:17.109Z,98382.84
2022-12-06T11:56:45.125Z,98374.88
2022-12-06T12:02:19.423Z,98365.50
2022-12-06T12:07:45.336Z,98354.06
2022-12-06T12:13:55.422Z,98349.69
2022-12-06T12:19:40.178Z,98341.81
2022-12-06T12:25:19.012Z,98356.91
2022-12-06T12:30:46.126Z,98352.53
2022-12-06T12:36:37.142Z,98357.94
2022-12-06T12:42:03.151Z,98348.19
2022-12-06T12:47:33.173Z,98347.13
2022-12-06T12:53:08.176Z,98340.03
2022-12-06T12:58:36.106Z,98332.91
2022-12-06T13:04:02.178Z,98327.53
2022-12-06T13:09:39.158Z,98326.66
2022-12-06T13:15:11.173Z,98323.94
2022-12-06T13:20:39.173Z,98322.00
2022-12-06T13:26:20.488Z,98322.00
2022-12-06T13:31:48.394Z,98315.75
2022-12-06T13:37:12.209Z,98320.22
2022-12-06T13:42:58.445Z,98320.97
2022-12-06T13:48:52.221Z,98321.06
2022-12-06T13:54:48.687Z,98317.44
2022-12-06T14:00:56.267Z,98328.25
2022-12-06T14:06:23.189Z,98327.63
2022-12-06T14:11:49.581Z,98315.31
2022-12-06T14:17:52.624Z,98332.09
2022-12-06T14:23:05.209Z,98333.03
2022-12-06T14:28:30.144Z,98340.88
2022-12-06T14:34:00.254Z,98333.78
2022-12-06T14:39:31.182Z,98345.22
2022-12-06T14:45:02.158Z,98331.88
2022-12-06T14:50:43.245Z,98336.31
2022-12-06T14:56:11.254Z,98334.53
2022-12-06T15:01:40.989Z,98354.06
2022-12-06T15:07:09.199Z,98349.47
2022-12-06T15:12:57.219Z,98353.09
2022-12-06T15:18:31.510Z,98365.31
2022-12-06T15:24:04.270Z,98356.47
2022-12-06T15:29:30.948Z,98360.84
2022-12-06T15:34:56.215Z,98355.34
2022-12-06T15:40:26.239Z,98348.22
2022-12-06T15:45:52.581Z,98352.56
2022-12-06T15:51:25.210Z,98347.19
2022-12-06T16:03:00.300Z,98350.59
2022-12-06T16:08:25.506Z,98360.22
2022-12-06T16:13:54.266Z,98372.44
2022-12-06T16:19:21.352Z,98375.00
2022-12-06T16:24:52.314Z,98385.41
2022-12-06T16:30:23.164Z,98370.31
2022-12-06T16:35:48.274Z,98378.19
2022-12-06T16:41:13.320Z,98378.19
2022-12-06T16:46:43.480Z,98373.84
2022-12-06T16:52:08.275Z,98372.97
2022-12-06T16:57:33.707Z,98385.28
2022-12-06T17:03:02.263Z,98381.81
2022-12-06T17:08:27.283Z,98378.94
2022-12-06T17:13:52.259Z,98374.59
2022-12-06T17:19:28.293Z,98364.81
2022-12-06T17:24:53.267Z,98368.22
2022-12-06T17:30:25.221Z,98376.94
2022-12-06T17:35:53.265Z,98373.22
2022-12-06T17:41:36.734Z,98378.41
2022-12-06T17:47:01.267Z,98378.34
2022-12-06T17:52:29.261Z,98374.72
2022-12-06T17:57:54.294Z,98373.78
2022-12-06T18:03:19.369Z,98371.84
2022-12-06T18:08:47.459Z,98375.25
2022-12-06T18:14:13.299Z,98367.28
2022-12-06T18:19:38.290Z,98376.84
2022-12-06T18:25:09.289Z,98375.91
2022-12-06T18:30:34.299Z,98382.06
2022-12-06T18:36:00.267Z,98379.50
2022-12-06T18:41:32.331Z,98359.13
2022-12-06T18:47:00.306Z,98366.16
2022-12-06T18:52:26.311Z,98373.16
2022-12-06T18:57:54.304Z,98367.84
2022-12-06T19:03:20.348Z,98361.59
2022-12-06T19:08:48.306Z,98372.28
2022-12-06T19:14:16.349Z,98368.81
2022-12-06T19:19:41.334Z,98358.06
2022-12-06T19:25:06.302Z,98359.03
2022-12-06T19:30:34.362Z,98361.69
2022-12-06T19:35:59.864Z,98370.59
2022-12-06T19:41:27.298Z,98373.91
2022-12-06T19:46:57.292Z,98356.41
2022-12-06T19:52:31.103Z,98348.31
2022-12-06T19:57:57.354Z,98350.47
2022-12-06T20:03:24.344Z,98344.41
2022-12-06T20:08:51.307Z,98338.25
2022-12-06T20:14:18.347Z,98332.00
2022-12-06T20:19:46.503Z,98331.13
2022-12-06T20:25:11.498Z,98318.81
2022-12-06T20:30:40.681Z,98325.41
2022-12-06T20:36:07.331Z,98329.44
2022-12-06T20:41:36.351Z,98328.69
2022-12-06T20:47:04.518Z,98320.31
2022-12-06T20:52:33.362Z,98320.59
2022-12-06T20:57:59.363Z,98314.53
2022-12-06T21:03:24.438Z,98310.09
2022-12-06T21:08:53.326Z,98315.63
2022-12-06T21:14:20.385Z,98315.63
2022-12-06T21:19:44.341Z,98311.38
2022-12-06T21:25:12.509Z,98309.13
2022-12-06T21:30:37.337Z,98310.09
2022-12-06T21:36:03.779Z,98298.59
2022-12-06T21:41:30.403Z,98308.38
2022-12-06T21:46:55.399Z,98299.66
2022-12-06T21:52:21.379Z,98297.00
2022-12-06T21:57:49.377Z,98286.69
2022-12-06T22:03:19.337Z,98289.69
2022-12-06T22:08:48.355Z,98285.88
2022-12-06T22:14:16.364Z,98273.66
2022-12-06T22:19:42.378Z,98282.00
2022-12-06T22:25:06.405Z,98282.56
2022-12-06T22:30:34.706Z,98274.63
2022-12-06T22:35:59.382Z,98271.16
2022-12-06T22:41:24.408Z,98256.53
2022-12-06T22:46:52.477Z,98252.94
2022-12-06T22:52:17.370Z,98261.63
2022-12-06T22:57:43.442Z,98260.69
2022-12-06T23:03:11.396Z,98262.94
2022-12-06T23:08:36.856Z,98261.38
2022-12-06T23:14:01.401Z,98246.47
2022-12-06T23:19:28.404Z,98245.66
2022-12-06T23:24:53.406Z,98247.13
2022-12-06T23:30:17.553Z,98235.47
2022-12-06T23:35:45.404Z,98238.88
2022-12-06T23:41:09.365Z,98239.41
2022-12-06T23:46:36.461Z,98231.97
2022-12-06T23:52:05.383Z,98226.13
2022-12-06T23:57:30.421Z,98219.34
